Time;durP1;ratioP1;P1;durP2;ratioP2;P2;SDS_P1;SDS_P2;PMS_P1;PMS_P2;Temp;Humidity;BMP_temperature;BMP_pressure;BME280_temperature;BME280_humidity;BME280_pressure;Samples;Min_cycle;Max_cycle;Signal;HPM_P1;HPM_P2
2021/04/19 00:02:02;;;;;;;;;;;;;;;18.75;33.43;100205.34;4410410;32;20387;-54
2021/04/19 00:04:27;;;;;;;;;;;;;;;18.76;33.56;100201.84;4417339;32;20734;-56
2021/04/19 00:06:53;;;;;;;;;;;;;;;18.76;33.52;100209.75;4417559;32;19950;-56
2021/04/19 00:09:19;;;;;;;;;;;;;;;18.67;33.63;100205.22;4417247;32;19962;-57
2021/04/19 00:11:45;;;;;;;;;;;;;;;18.70;33.23;100194.69;4402678;32;20022;-55
2021/04/19 00:14:11;;;;;;;;;;;;;;;18.74;33.69;100196.56;4402966;32;20037;-57
2021/04/19 00:16:37;;;;;;;;;;;;;;;18.74;33.36;100190.38;4417305;32;20353;-56
2021/04/19 00:19:03;;;;;;;;;;;;;;;18.68;33.43;100185.87;4418033;32;19947;-54
2021/04/19 00:21:29;;;;;;;;;;;;;;;18.71;33.82;100183.31;4418436;32;20529;-55
2021/04/19 00:23:55;;;;;;;;;;;;;;;18.72;33.69;100177.19;4418362;32;19949;-55
2021/04/19 00:26:20;;;;;;;;;;;;;;;18.74;33.38;100172.81;4418155;32;19969;-56
2021/04/19 00:28:46;;;;;;;;;;;;;;;18.72;33.71;100174.53;4417934;32;19946;-56
2021/04/19 00:31:12;;;;;;;;;;;;;;;18.74;33.50;100170.16;4417546;32;20107;-55
2021/04/19 00:33:38;;;;;;;;;;;;;;;18.69;33.87;100174.47;4418407;32;19951;-56
2021/04/19 00:36:04;;;;;;;;;;;;;;;18.70;33.70;100165.69;4409464;32;19950;-55
2021/04/19 00:38:30;;;;;;;;;;;;;;;18.70;33.55;100176.25;4402910;32;19946;-56
2021/04/19 00:40:56;;;;;;;;;;;;;;;18.76;33.51;100176.34;4409681;32;19950;-56
2021/04/19 00:43:22;;;;;;;;;;;;;;;18.74;33.54;100172.81;4416198;32;20003;-56
2021/04/19 00:45:48;;;;;;;;;;;;;;;18.73;33.74;100171.03;4416905;32;20343;-56
2021/04/19 00:48:14;;;;;;;;;;;;;;;18.73;33.50;100173.69;4415497;32;19991;-55
2021/04/19 00:50:40;;;;;;;;;;;;;;;18.76;33.54;100170.19;4417842;32;19991;-57
2021/04/19 00:53:06;;;;;;;;;;;;;;;18.73;33.58;100171.03;4418256;32;19950;-56
2021/04/19 00:55:32;;;;;;;;;;;;;;;18.73;33.25;100171.03;4417367;32;19946;-54
2021/04/19 00:57:58;;;;;;;;;;;;;;;18.71;33.34;100172.78;4417400;32;19981;-57
2021/04/19 01:00:23;;;;;;;;;;;;;;;18.75;33.73;100169.31;4413778;32;19970;-55
2021/04/19 01:02:49;;;;;;;;;;;;;;;18.75;33.39;100158.75;4401183;32;19965;-56
2021/04/19 01:05:15;;;;;;;;;;;;;;;18.76;33.15;100170.19;4416593;32;20374;-55
2021/04/19 01:07:41;;;;;;;;;;;;;;;18.67;33.52;100165.66;4417659;32;19966;-55
2021/04/19 01:10:07;;;;;;;;;;;;;;;18.73;33.49;100160.50;4417061;32;20448;-54
2021/04/19 01:12:33;;;;;;;;;;;;;;;18.72;33.75;100164.00;4403764;32;19969;-56
2021/04/19 01:14:59;;;;;;;;;;;;;;;18.69;34.21;100161.28;4402283;32;19951;-54
2021/04/19 01:17:25;;;;;;;;;;;;;;;18.68;33.58;100164.78;4414018;32;20268;-56
2021/04/19 01:19:51;;;;;;;;;;;;;;;18.63;33.91;100158.56;4417154;32;19970;-55
2021/04/19 01:22:17;;;;;;;;;;;;;;;18.68;33.76;100156.88;4406236;32;19943;-55
2021/04/19 01:24:42;;;;;;;;;;;;;;;18.68;33.80;100162.16;4402487;32;20028;-52
2021/04/19 01:27:08;;;;;;;;;;;;;;;18.71;33.27;100161.31;4411141;32;19965;-57
2021/04/19 01:29:34;;;;;;;;;;;;;;;18.61;34.10;100168.19;4416399;32;19958;-54
2021/04/19 01:32:00;;;;;;;;;;;;;;;18.65;33.74;100156.81;4408880;32;19962;-56
2021/04/19 01:34:26;;;;;;;;;;;;;;;18.65;33.68;100152.47;4405589;32;20612;-54
2021/04/19 01:36:52;;;;;;;;;;;;;;;18.68;33.43;100156.88;4416493;32;20035;-55
2021/04/19 01:39:18;;;;;;;;;;;;;;;18.68;33.44;100162.16;4417159;32;20395;-55
2021/04/19 01:41:44;;;;;;;;;;;;;;;18.69;33.58;100161.28;4416905;32;19972;-56
2021/04/19 01:44:10;;;;;;;;;;;;;;;18.72;33.65;100155.19;4416568;32;19965;-56
2021/04/19 01:46:36;;;;;;;;;;;;;;;18.64;33.75;100162.97;4412988;32;19938;-56
2021/04/19 01:49:02;;;;;;;;;;;;;;;18.73;33.55;100160.50;4401906;32;19946;-56
2021/04/19 01:51:28;;;;;;;;;;;;;;;18.71;33.71;100159.59;4404653;32;19964;-56
2021/04/19 01:53:53;;;;;;;;;;;;;;;18.65;33.97;100159.47;4417203;32;19966;-55
2021/04/19 01:56:19;;;;;;;;;;;;;;;18.63;33.89;100159.44;4417314;32;20570;-54
2021/04/19 01:58:45;;;;;;;;;;;;;;;18.62;34.11;100146.25;4416130;32;20368;-56
2021/04/19 02:01:11;;;;;;;;;;;;;;;18.69;33.92;100148.09;4415902;32;20003;-56
2021/04/19 02:03:37;;;;;;;;;;;;;;;18.68;33.40;100152.50;4417598;32;19954;-56
2021/04/19 02:06:03;;;;;;;;;;;;;;;18.66;33.70;100150.69;4416571;32;19954;-54
2021/04/19 02:08:29;;;;;;;;;;;;;;;18.61;33.87;100161.16;4416647;32;19958;-55
2021/04/19 02:10:55;;;;;;;;;;;;;;;18.61;33.83;100149.75;4416850;32;20365;-56
2021/04/19 02:13:21;;;;;;;;;;;;;;;18.61;33.95;100149.75;4403739;32;20048;-57
2021/04/19 02:15:46;;;;;;;;;;;;;;;18.62;34.05;100156.78;4400741;32;20320;-56
2021/04/19 02:18:12;;;;;;;;;;;;;;;18.67;33.45;100161.28;4412468;32;20057;-55
2021/04/19 02:20:39;;;;;;;;;;;;;;;18.59;33.87;100157.62;4417094;32;20001;-54
2021/04/19 02:23:05;;;;;;;;;;;;;;;18.61;33.93;100157.66;4416648;32;19942;-57
2021/04/19 02:25:31;;;;;;;;;;;;;;;18.63;34.18;100159.44;4416596;32;19980;-56
2021/04/19 02:27:57;;;;;;;;;;;;;;;18.61;33.67;100150.59;4414799;32;19968;-56
2021/04/19 02:30:22;;;;;;;;;;;;;;;18.64;33.72;100157.69;4416025;32;19982;-57
2021/04/19 02:32:48;;;;;;;;;;;;;;;18.63;33.99;100159.44;4417053;32;20240;-55
2021/04/19 02:35:14;;;;;;;;;;;;;;;18.63;34.10;100161.19;4416231;32;19954;-57
2021/04/19 02:37:40;;;;;;;;;;;;;;;18.66;34.01;100164.78;4416189;32;19964;-54
2021/04/19 02:40:06;;;;;;;;;;;;;;;18.51;34.20;100149.59;4416954;32;19966;-56
2021/04/19 02:42:32;;;;;;;;;;;;;;;18.61;33.90;100160.28;4416462;32;20010;-57
2021/04/19 02:44:58;;;;;;;;;;;;;;;18.60;33.95;100154.12;4416524;32;19953;-56
2021/04/19 02:47:24;;;;;;;;;;;;;;;18.55;34.47;100153.16;4416334;32;19965;-55
2021/04/19 02:49:50;;;;;;;;;;;;;;;18.66;33.89;100153.31;4415709;32;20001;-56
2021/04/19 02:52:16;;;;;;;;;;;;;;;18.69;33.87;100153.38;4415084;32;20009;-56
2021/04/19 02:54:42;;;;;;;;;;;;;;;18.70;33.80;100151.63;4401060;32;19959;-56
2021/04/19 02:57:07;;;;;;;;;;;;;;;18.63;34.05;100148.00;4401251;32;21049;-56
2021/04/19 02:59:33;;;;;;;;;;;;;;;18.61;34.14;100157.66;4414583;32;19977;-55
2021/04/19 03:01:59;;;;;;;;;;;;;;;18.63;34.02;100150.66;4414706;32;19969;-54
2021/04/19 03:04:25;;;;;;;;;;;;;;;18.66;34.11;100155.97;4401174;32;19954;-57
2021/04/19 03:06:51;;;;;;;;;;;;;;;18.67;34.19;100149.81;4400087;32;20340;-57
2021/04/19 03:09:17;;;;;;;;;;;;;;;18.67;34.22;100145.44;4412797;32;19962;-56
2021/04/19 03:11:43;;;;;;;;;;;;;;;18.64;34.02;100149.78;4416127;32;19958;-55
2021/04/19 03:14:09;;;;;;;;;;;;;;;18.61;34.42;100145.34;4417020;32;19966;-53
2021/04/19 03:16:34;;;;;;;;;;;;;;;18.62;34.37;100148.87;4418245;32;19965;-56
2021/04/19 03:19:00;;;;;;;;;;;;;;;18.60;34.39;100150.59;4408114;32;20293;-54
2021/04/19 03:21:26;;;;;;;;;;;;;;;18.65;34.21;100146.28;4402692;32;19958;-55
2021/04/19 03:23:52;;;;;;;;;;;;;;;18.62;34.40;100148.87;4411462;32;19993;-56
2021/04/19 03:26:18;;;;;;;;;;;;;;;18.64;34.18;100147.16;4418068;32;19972;-55
2021/04/19 03:28:44;;;;;;;;;;;;;;;18.65;34.20;100146.28;4416763;32;19980;-56
2021/04/19 03:31:10;;;;;;;;;;;;;;;18.64;34.29;100147.16;4417326;32;19975;-55
2021/04/19 03:33:36;;;;;;;;;;;;;;;18.68;33.91;100141.03;4413059;32;19939;-52
2021/04/19 03:36:02;;;;;;;;;;;;;;;18.69;33.98;100142.81;4402961;32;19951;-56
2021/04/19 03:38:27;;;;;;;;;;;;;;;18.62;34.23;100146.25;4406941;32;19964;-55
2021/04/19 03:40:53;;;;;;;;;;;;;;;18.66;34.50;100142.78;4418030;32;19958;-52
2021/04/19 03:43:19;;;;;;;;;;;;;;;18.64;34.28;100142.78;4414038;32;19962;-54
2021/04/19 03:45:45;;;;;;;;;;;;;;;18.68;34.10;100139.31;4402277;32;19965;-55
2021/04/19 03:48:11;;;;;;;;;;;;;;;18.61;34.20;100133.91;4414663;32;20287;-56
2021/04/19 03:50:37;;;;;;;;;;;;;;;18.67;34.26;100140.16;4418418;32;19974;-55
2021/04/19 03:53:03;;;;;;;;;;;;;;;18.59;34.59;100140.91;4418255;32;19969;-55
2021/04/19 03:55:29;;;;;;;;;;;;;;;18.60;34.30;100137.41;4403723;32;19984;-55
2021/04/19 03:57:55;;;;;;;;;;;;;;;18.57;34.84;100132.06;4402684;32;19955;-57
2021/04/19 04:00:21;;;;;;;;;;;;;;;18.63;34.09;100132.19;4416936;32;19946;-56
2021/04/19 04:02:47;;;;;;;;;;;;;;;18.60;34.57;100137.41;4418998;32;20023;-55
2021/04/19 04:05:13;;;;;;;;;;;;;;;18.59;34.43;100130.38;4418012;32;19959;-56
2021/04/19 04:07:39;;;;;;;;;;;;;;;18.60;34.62;100132.16;4417997;32;19954;-55
2021/04/19 04:10:05;;;;;;;;;;;;;;;18.54;34.39;100128.53;4406519;32;19966;-55
2021/04/19 04:12:31;;;;;;;;;;;;;;;18.64;34.15;100131.31;4403459;32;19954;-56
2021/04/19 04:14:57;;;;;;;;;;;;;;;18.63;34.11;100129.56;4412070;32;19962;-56
2021/04/19 04:17:23;;;;;;;;;;;;;;;18.65;34.38;100133.09;4413833;32;20429;-56
2021/04/19 04:19:49;;;;;;;;;;;;;;;18.69;34.29;100129.63;4415246;32;19942;-57
2021/04/19 04:22:15;;;;;;;;;;;;;;;18.62;34.39;100131.28;4416225;32;20348;-55
2021/04/19 04:24:41;;;;;;;;;;;;;;;18.63;34.50;100134.81;4416453;32;19983;-55
2021/04/19 04:27:07;;;;;;;;;;;;;;;18.61;34.55;100134.78;4418053;32;19950;-56
2021/04/19 04:29:33;;;;;;;;;;;;;;;18.63;34.65;100142.75;4418494;32;19965;-54
2021/04/19 04:31:59;;;;;;;;;;;;;;;18.59;34.66;100146.19;4417574;32;19965;-55
2021/04/19 04:34:24;;;;;;;;;;;;;;;18.66;34.39;100148.06;4418773;32;19970;-56
2021/04/19 04:36:50;;;;;;;;;;;;;;;18.61;34.30;100144.47;4418168;32;19973;-56
2021/04/19 04:39:16;;;;;;;;;;;;;;;18.57;34.76;100143.53;4417498;32;19974;-56
2021/04/19 04:41:42;;;;;;;;;;;;;;;18.64;34.51;100144.50;4418657;32;20050;-56
2021/04/19 04:44:08;;;;;;;;;;;;;;;18.59;34.51;100147.06;4415856;32;19983;-56
2021/04/19 04:46:34;;;;;;;;;;;;;;;18.58;34.63;100144.41;4408554;32;19980;-55
2021/04/19 04:49:00;;;;;;;;;;;;;;;18.59;34.41;100147.06;4416674;32;20570;-56
2021/04/19 04:51:25;;;;;;;;;;;;;;;18.61;34.39;100144.47;4415765;32;19998;-56
2021/04/19 04:53:52;;;;;;;;;;;;;;;18.52;34.86;100150.44;4417955;32;19994;-54
2021/04/19 04:56:17;;;;;;;;;;;;;;;18.54;34.76;100144.34;4402500;32;19962;-51
2021/04/19 04:58:43;;;;;;;;;;;;;;;18.59;34.29;100146.19;4402917;32;20331;-56
2021/04/19 05:01:09;;;;;;;;;;;;;;;18.65;34.20;100152.47;4414649;32;19950;-56
2021/04/19 05:03:35;;;;;;;;;;;;;;;18.66;34.68;100155.97;4417031;32;19993;-54
2021/04/19 05:06:02;;;;;;;;;;;;;;;18.60;34.46;100153.25;4417860;32;19986;-56
2021/04/19 05:08:28;;;;;;;;;;;;;;;18.62;34.66;100151.50;4417150;32;19993;-56
2021/04/19 05:10:54;;;;;;;;;;;;;;;18.49;34.74;100150.41;4418158;32;19954;-56
2021/04/19 05:13:20;;;;;;;;;;;;;;;18.53;35.14;100153.13;4402173;32;19947;-56
2021/04/19 05:15:46;;;;;;;;;;;;;;;18.58;34.74;100150.56;4401815;32;19967;-56
2021/04/19 05:18:12;;;;;;;;;;;;;;;18.62;34.21;100148.87;4399237;32;19974;-55
2021/04/19 05:20:38;;;;;;;;;;;;;;;18.65;34.53;100146.28;4402016;32;20336;-55
2021/04/19 05:23:03;;;;;;;;;;;;;;;18.61;34.52;100147.09;4400483;32;19954;-56
2021/04/19 05:25:29;;;;;;;;;;;;;;;18.62;34.68;100148.87;4401575;32;19954;-57
2021/04/19 05:27:55;;;;;;;;;;;;;;;18.66;34.16;100148.06;4400171;32;19994;-57
2021/04/19 05:30:21;;;;;;;;;;;;;;;18.61;34.68;100155.00;4399642;32;20237;-56
2021/04/19 05:32:47;;;;;;;;;;;;;;;18.66;34.45;100148.06;4400744;32;19954;-56
2021/04/19 05:35:13;;;;;;;;;;;;;;;18.65;34.41;100152.47;4399514;32;19958;-55
2021/04/19 05:37:39;;;;;;;;;;;;;;;18.64;34.50;100155.97;4401655;32;19955;-56
2021/04/19 05:40:04;;;;;;;;;;;;;;;18.65;34.75;100156.81;4399978;32;19950;-54
2021/04/19 05:42:30;;;;;;;;;;;;;;;18.64;34.76;100147.16;4400880;32;20352;-56
2021/04/19 05:44:56;;;;;;;;;;;;;;;18.66;34.57;100151.59;4399845;32;19997;-57
2021/04/19 05:47:22;;;;;;;;;;;;;;;18.66;34.24;100158.59;4415099;32;20025;-56
2021/04/19 05:49:48;;;;;;;;;;;;;;;18.66;34.22;100159.50;4418216;32;19938;-56
2021/04/19 05:52:14;;;;;;;;;;;;;;;18.70;34.11;100156.91;4416865;32;19954;-56
2021/04/19 05:54:40;;;;;;;;;;;;;;;18.69;34.38;100161.28;4415624;32;19943;-54
2021/04/19 05:57:06;;;;;;;;;;;;;;;18.72;34.53;100153.44;4416552;32;20294;-56
2021/04/19 05:59:32;;;;;;;;;;;;;;;18.73;34.14;100160.50;4416333;32;19958;-54
2021/04/19 06:01:58;;;;;;;;;;;;;;;18.73;34.18;100165.75;4410374;32;20337;-55
2021/04/19 06:04:23;;;;;;;;;;;;;;;18.77;34.13;100171.97;4414400;32;20071;-55
2021/04/19 06:06:49;;;;;;;;;;;;;;;18.72;34.27;100171.91;4414085;32;19949;-56
2021/04/19 06:09:15;;;;;;;;;;;;;;;18.66;34.37;100174.44;4414331;32;19973;-54
2021/04/19 06:11:41;;;;;;;;;;;;;;;18.67;34.38;100170.91;4415913;32;19992;-55
2021/04/19 06:14:08;;;;;;;;;;;;;;;18.69;34.42;100171.81;4415381;32;19977;-55
2021/04/19 06:16:34;;;;;;;;;;;;;;;18.71;34.30;100172.78;4415358;32;19965;-56
2021/04/19 06:19:00;;;;;;;;;;;;;;;18.69;34.36;100169.19;4415881;32;19950;-55
2021/04/19 06:21:26;;;;;;;;;;;;;;;18.73;34.38;100173.69;4415129;32;20003;-56
2021/04/19 06:23:51;;;;;;;;;;;;;;;18.76;34.33;100170.19;4415321;32;20343;-55
2021/04/19 06:26:18;;;;;;;;;;;;;;;18.74;34.32;100179.81;4415918;32;19947;-55
2021/04/19 06:28:43;;;;;;;;;;;;;;;18.78;34.28;100177.25;4415542;32;19984;-55
2021/04/19 06:31:09;;;;;;;;;;;;;;;18.77;34.54;100177.25;4412901;32;19950;-55
2021/04/19 06:33:35;;;;;;;;;;;;;;;18.75;34.38;100177.22;4415053;32;19958;-54
2021/04/19 06:36:01;;;;;;;;;;;;;;;18.80;34.31;100172.03;4416077;32;20287;-56
2021/04/19 06:38:27;;;;;;;;;;;;;;;18.80;34.22;100183.44;4413547;32;19999;-54
2021/04/19 06:40:53;;;;;;;;;;;;;;;18.79;34.35;100181.66;4416172;32;19962;-56
2021/04/19 06:43:20;;;;;;;;;;;;;;;18.74;34.55;100187.72;4414464;32;19995;-56
2021/04/19 06:45:46;;;;;;;;;;;;;;;18.70;34.84;100186.78;4414372;32;19960;-56
2021/04/19 06:48:12;;;;;;;;;;;;;;;18.75;34.59;100185.13;4417663;32;20000;-56
2021/04/19 06:50:37;;;;;;;;;;;;;;;18.74;34.81;100186.00;4416117;32;20376;-55
2021/04/19 06:53:03;;;;;;;;;;;;;;;18.64;35.34;100181.44;4416629;32;19950;-56
2021/04/19 06:55:29;;;;;;;;;;;;;;;18.65;35.07;100188.47;4418005;32;20354;-56
2021/04/19 06:57:55;;;;;;;;;;;;;;;18.66;35.04;100190.25;4418083;32;20582;-57
2021/04/19 07:00:21;;;;;;;;;;;;;;;18.75;34.89;100189.50;4416668;32;19949;-56
2021/04/19 07:02:47;;;;;;;;;;;;;;;18.80;34.82;100194.00;4417017;32;19961;-56
2021/04/19 07:05:13;;;;;;;;;;;;;;;18.79;34.77;100191.34;4417716;32;20053;-56
2021/04/19 07:07:39;;;;;;;;;;;;;;;18.85;34.49;100195.84;4416226;32;20369;-56
2021/04/19 07:10:05;;;;;;;;;;;;;;;18.84;34.68;100188.78;4416513;32;19950;-52
2021/04/19 07:12:31;;;;;;;;;;;;;;;18.81;34.77;100185.22;4418411;32;19987;-55
2021/04/19 07:14:57;;;;;;;;;;;;;;;18.82;34.73;100192.25;4417027;32;19961;-56
2021/04/19 07:17:25;;;;;;;;;;;;;;;18.81;34.93;100185.22;4416351;32;20632;-56
2021/04/19 07:19:51;;;;;;;;;;;;;;;18.83;34.76;100187.88;4418762;32;20015;-56
2021/04/19 07:22:17;;;;;;;;;;;;;;;18.88;34.72;100195.88;4417245;32;19985;-56
2021/04/19 07:24:43;;;;;;;;;;;;;;;18.88;34.85;100186.19;4417632;32;19962;-54
2021/04/19 07:27:10;;;;;;;;;;;;;;;18.88;34.79;100187.97;4416106;32;19969;-55
2021/04/19 07:29:35;;;;;;;;;;;;;;;18.90;34.80;100191.50;4418437;32;20021;-56
2021/04/19 07:32:02;;;;;;;;;;;;;;;18.91;34.73;100186.28;4417414;32;19988;-55
2021/04/19 07:34:27;;;;;;;;;;;;;;;18.94;34.75;100186.31;4417997;32;19972;-55
2021/04/19 07:36:53;;;;;;;;;;;;;;;18.90;34.95;100183.59;4417524;32;19957;-57
2021/04/19 07:39:19;;;;;;;;;;;;;;;18.93;34.79;100183.63;4417893;32;19946;-56
2021/04/19 07:41:45;;;;;;;;;;;;;;;18.97;34.67;100190.75;4417712;32;19997;-55
2021/04/19 07:44:11;;;;;;;;;;;;;;;18.99;34.74;100177.56;4415595;32;20015;-54
2021/04/19 07:46:37;;;;;;;;;;;;;;;18.99;34.75;100181.09;4415867;32;19951;-56
2021/04/19 07:49:03;;;;;;;;;;;;;;;19.00;34.72;100169.72;4415624;32;20020;-53
2021/04/19 07:51:29;;;;;;;;;;;;;;;18.99;34.81;100172.28;4416422;32;19954;-55
2021/04/19 07:53:55;;;;;;;;;;;;;;;18.99;34.94;100178.47;4415905;32;20028;-55
2021/04/19 07:56:21;;;;;;;;;;;;;;;19.02;34.83;100173.25;4417318;32;20518;-57
2021/04/19 07:58:47;;;;;;;;;;;;;;;19.03;34.83;100175.03;4417215;32;19950;-51
2021/04/19 08:01:13;;;;;;;;;;;;;;;19.06;34.81;100177.72;4415527;32;20038;-57
2021/04/19 08:03:39;;;;;;;;;;;;;;;19.07;34.87;100183.88;4406703;32;19972;-55
2021/04/19 08:06:05;;;;;;;;;;;;;;;19.06;34.90;100174.19;4401944;32;19991;-56
2021/04/19 08:08:31;;;;;;;;;;;;;;;19.08;34.87;100183.03;4409632;32;19962;-55
2021/04/19 08:10:57;;;;;;;;;;;;;;;19.09;35.02;100180.41;4417781;32;19954;-56
2021/04/19 08:13:23;;;;;;;;;;;;;;;19.08;34.92;100173.38;4417378;32;20170;-56
2021/04/19 08:15:49;;;;;;;;;;;;;;;19.06;35.02;100177.72;4415173;32;19958;-55
2021/04/19 08:18:15;;;;;;;;;;;;;;;19.11;35.01;100177.78;4414882;32;20009;-55
2021/04/19 08:20:41;;;;;;;;;;;;;;;19.06;35.12;100177.72;4415516;32;20016;-54
2021/04/19 08:23:07;;;;;;;;;;;;;;;19.03;35.18;100182.06;4416243;32;20044;-54
2021/04/19 08:25:33;;;;;;;;;;;;;;;18.98;35.29;100176.69;4417275;32;19946;-55
2021/04/19 08:27:58;;;;;;;;;;;;;;;18.95;35.46;100173.97;4416122;32;20390;-53
2021/04/19 08:30:24;;;;;;;;;;;;;;;18.92;35.49;100176.59;4415583;32;20022;-54
2021/04/19 08:32:50;;;;;;;;;;;;;;;18.74;35.96;100174.53;4415147;32;20039;-56
2021/04/19 08:35:16;;;;;;;;;;;;;;;18.85;35.86;100185.28;4401537;32;20619;-54
2021/04/19 08:37:42;;;;;;;;;;;;;;;18.84;35.86;100172.97;4400626;32;19954;-55
2021/04/19 08:40:08;;;;;;;;;;;;;;;18.82;35.93;100173.78;4401982;32;20260;-53
2021/04/19 08:42:34;;;;;;;;;;;;;;;18.80;35.87;100178.16;4402145;32;19955;-55
2021/04/19 08:45:00;;;;;;;;;;;;;;;18.87;35.88;100179.16;4401540;32;19958;-54
2021/04/19 08:47:29;;;;;;;;;;;;;;;18.90;35.86;100178.31;4400350;32;20384;-56
2021/04/19 08:49:55;;;;;;;;;;;;;;;18.91;35.88;100182.72;4414428;32;19962;-56
2021/04/19 08:52:21;;;;;;;;;;;;;;;18.89;35.94;100187.09;4415280;32;20357;-54
2021/04/19 08:54:47;;;;;;;;;;;;;;;18.91;35.92;100185.38;4415033;32;19946;-56
2021/04/19 08:57:13;;;;;;;;;;;;;;;18.93;35.85;100189.81;4414403;32;20432;-56
2021/04/19 08:59:39;;;;;;;;;;;;;;;18.94;35.87;100186.31;4417765;32;19938;-55
2021/04/19 09:02:05;;;;;;;;;;;;;;;18.94;35.89;100190.69;4416524;32;19989;-58
2021/04/19 09:04:31;;;;;;;;;;;;;;;18.95;35.86;100189.81;4416838;32;20023;-54
2021/04/19 09:06:58;;;;;;;;;;;;;;;18.58;37.54;100190.13;4415960;32;19970;-55
2021/04/19 09:09:24;;;;;;;;;;;;;;;18.76;36.80;100186.00;4413846;32;19983;-56
2021/04/19 09:11:50;;;;;;;;;;;;;;;18.81;36.43;100190.50;4417107;32;19954;-56
2021/04/19 09:14:16;;;;;;;;;;;;;;;18.91;36.20;100181.00;4416297;32;19988;-55
2021/04/19 09:16:42;;;;;;;;;;;;;;;18.88;36.32;100190.59;4414948;32;19982;-56
2021/04/19 09:19:08;;;;;;;;;;;;;;;18.90;36.23;100188.88;4416855;32;19948;-54
2021/04/19 09:21:34;;;;;;;;;;;;;;;18.95;36.13;100181.91;4417332;32;20007;-54
2021/04/19 09:24:00;;;;;;;;;;;;;;;18.98;36.02;100181.97;4415744;32;19974;-55
2021/04/19 09:26:26;;;;;;;;;;;;;;;19.02;35.99;100181.16;4416214;32;19972;-53
2021/04/19 09:28:52;;;;;;;;;;;;;;;19.02;35.95;100180.31;4409979;32;19982;-53
2021/04/19 09:31:18;;;;;;;;;;;;;;;19.04;35.95;100182.09;4414093;32;19954;-55
2021/04/19 09:33:44;;;;;;;;;;;;;;;19.06;35.90;100174.19;4415468;32;19965;-55
2021/04/19 09:36:10;;;;;;;;;;;;;;;19.04;35.95;100179.44;4414902;32;19957;-55
2021/04/19 09:39:09;;;;;;;;;;;;;;;18.97;36.15;100177.56;4415769;32;19956;-56
2021/04/19 09:41:28;;;;;;;;;;;;;;;19.09;35.90;100175.13;4400342;32;19997;-55
2021/04/19 09:43:56;;;;;;;;;;;;;;;19.16;35.82;100176.09;4402420;32;20625;-54
2021/04/19 09:46:22;;;;;;;;;;;;;;;19.16;35.84;100175.22;4416769;32;19966;-54
2021/04/19 09:48:48;;;;;;;;;;;;;;;19.05;36.16;100177.69;4416432;32;19988;-53
2021/04/19 09:51:14;;;;;;;;;;;;;;;19.17;35.84;100171.69;4415630;32;20651;-55
2021/04/19 09:53:40;;;;;;;;;;;;;;;19.24;35.66;100179.72;4415761;32;19971;-53
2021/04/19 09:56:06;;;;;;;;;;;;;;;19.32;35.50;100181.59;4415222;32;19961;-54
2021/04/19 09:58:32;;;;;;;;;;;;;;;19.29;35.55;100176.28;4416020;32;19958;-54
2021/04/19 10:00:58;;;;;;;;;;;;;;;19.32;35.50;100178.94;4416594;32;20005;-51
2021/04/19 10:03:24;;;;;;;;;;;;;;;19.32;35.48;100171.94;4415872;32;19965;-54
2021/04/19 10:05:50;;;;;;;;;;;;;;;19.30;35.51;100178.91;4416271;32;19962;-51
2021/04/19 10:08:16;;;;;;;;;;;;;;;19.26;35.61;100165.66;4415426;32;19964;-53
2021/04/19 10:10:42;;;;;;;;;;;;;;;19.27;35.61;100168.31;4416073;32;20368;-50
2021/04/19 10:13:08;;;;;;;;;;;;;;;19.31;35.57;100166.63;4414987;32;19981;-52
2021/04/19 10:15:34;;;;;;;;;;;;;;;19.31;35.63;100164.84;4399431;32;19961;-50
2021/04/19 10:17:59;;;;;;;;;;;;;;;19.31;35.65;100163.97;4400532;32;20269;-53
2021/04/19 10:20:25;;;;;;;;;;;;;;;19.29;35.80;100168.34;4408049;32;20334;-54
2021/04/19 10:22:51;;;;;;;;;;;;;;;19.33;35.75;100167.53;4401763;32;19965;-54
2021/04/19 10:25:17;;;;;;;;;;;;;;;19.30;35.93;100168.34;4405113;32;19988;-52
2021/04/19 10:27:43;;;;;;;;;;;;;;;19.34;35.78;100164.91;4416154;32;19957;-53
2021/04/19 10:30:09;;;;;;;;;;;;;;;19.36;35.76;100173.75;4418147;32;20619;-53
2021/04/19 10:32:35;;;;;;;;;;;;;;;19.37;35.75;100164.94;4419035;32;19962;-54
2021/04/19 10:35:01;;;;;;;;;;;;;;;19.28;35.93;100163.94;4418209;32;19962;-53
2021/04/19 10:37:27;;;;;;;;;;;;;;;19.36;35.80;100160.53;4416436;32;20317;-52
2021/04/19 10:39:52;;;;;;;;;;;;;;;19.40;35.74;100158.84;4407135;32;20005;-53
2021/04/19 10:42:18;;;;;;;;;;;;;;;19.43;35.69;100157.97;4399544;32;19969;-53
2021/04/19 10:44:44;;;;;;;;;;;;;;;19.37;35.84;100164.94;4401794;32;19992;-54
2021/04/19 10:47:10;;;;;;;;;;;;;;;19.38;35.83;100160.53;4400969;32;20045;-52
2021/04/19 10:49:36;;;;;;;;;;;;;;;19.37;35.94;100159.66;4404401;32;19950;-52
2021/04/19 10:52:02;;;;;;;;;;;;;;;19.36;36.10;100160.53;4404937;32;19962;-54
2021/04/19 10:54:28;;;;;;;;;;;;;;;19.45;35.93;100156.25;4417595;32;19993;-53
2021/04/19 10:56:54;;;;;;;;;;;;;;;19.47;35.88;100154.50;4415272;32;19978;-52
2021/04/19 10:59:22;;;;;;;;;;;;;;;19.54;35.77;100156.34;4418707;32;20259;-53
2021/04/19 11:01:48;;;;;;;;;;;;;;;19.43;35.95;100163.25;4418575;32;20013;-53
2021/04/19 11:04:14;;;;;;;;;;;;;;;19.46;35.82;100160.66;4417694;32;19957;-53
2021/04/19 11:06:40;;;;;;;;;;;;;;;19.41;35.89;100157.06;4419628;32;19961;-54
2021/04/19 11:09:05;;;;;;;;;;;;;;;19.43;35.84;100163.25;4417241;32;20017;-51
2021/04/19 11:11:31;;;;;;;;;;;;;;;19.37;35.90;100162.31;4419481;32;19952;-52
2021/04/19 11:13:57;;;;;;;;;;;;;;;19.42;35.84;100158.81;4417598;32;19983;-54
2021/04/19 11:16:23;;;;;;;;;;;;;;;19.44;35.76;100154.44;4417540;32;20041;-53
2021/04/19 11:18:49;;;;;;;;;;;;;;;19.38;35.88;100149.97;4417562;32;20318;-54
2021/04/19 11:21:15;;;;;;;;;;;;;;;19.36;35.88;100149.97;4414686;32;19954;-53
2021/04/19 11:23:41;;;;;;;;;;;;;;;19.40;35.82;100152.66;4411015;32;19988;-52
2021/04/19 11:26:07;;;;;;;;;;;;;;;19.36;35.84;100149.97;4418702;32;19962;-52
2021/04/19 11:28:34;;;;;;;;;;;;;;;19.42;35.78;100148.25;4418490;32;19956;-54
2021/04/19 11:31:00;;;;;;;;;;;;;;;19.43;35.74;100150.03;4418042;32;19950;-54
2021/04/19 11:33:25;;;;;;;;;;;;;;;19.44;35.72;100143.88;4416095;32;20286;-53
2021/04/19 11:35:51;;;;;;;;;;;;;;;19.44;35.69;100144.78;4417152;32;20396;-53
2021/04/19 11:38:17;;;;;;;;;;;;;;;19.42;35.71;100135.97;4416261;32;19992;-54
2021/04/19 11:40:45;;;;;;;;;;;;;;;19.45;35.68;100140.41;4418389;32;19960;-54
2021/04/19 11:43:11;;;;;;;;;;;;;;;19.48;35.65;100145.72;4416208;32;20421;-53
2021/04/19 11:45:36;;;;;;;;;;;;;;;19.45;35.62;100141.28;4418308;32;19982;-53
2021/04/19 11:48:02;;;;;;;;;;;;;;;19.50;35.54;100139.56;4418024;32;19982;-55
2021/04/19 11:50:30;;;;;;;;;;;;;;;19.48;35.59;100140.44;4418799;32;19947;-53
2021/04/19 11:52:56;;;;;;;;;;;;;;;19.44;35.63;100143.88;4414368;32;20318;-50
2021/04/19 11:55:22;;;;;;;;;;;;;;;19.53;35.51;100138.72;4417722;32;20045;-49
2021/04/19 11:57:48;;;;;;;;;;;;;;;19.48;35.60;100145.72;4413279;32;19939;-54
2021/04/19 12:00:14;;;;;;;;;;;;;;;19.48;35.56;100132.50;4400181;32;20426;-51
2021/04/19 12:02:40;;;;;;;;;;;;;;;19.44;35.65;100131.59;4403295;32;20014;-50
2021/04/19 12:05:06;;;;;;;;;;;;;;;19.47;35.62;100128.09;4402256;32;19954;-53
2021/04/19 12:07:32;;;;;;;;;;;;;;;19.49;35.58;100136.91;4403972;32;19954;-51
2021/04/19 12:09:58;;;;;;;;;;;;;;;19.52;35.48;100129.94;4417693;32;20004;-51
2021/04/19 12:12:25;;;;;;;;;;;;;;;19.58;35.39;100123.84;4417791;32;19968;-54
2021/04/19 12:14:51;;;;;;;;;;;;;;;19.54;35.46;100135.22;4419138;32;20037;-53
2021/04/19 12:17:17;;;;;;;;;;;;;;;19.59;35.43;100124.69;4417028;32;19954;-54
2021/04/19 12:19:43;;;;;;;;;;;;;;;19.55;35.46;100126.41;4414636;32;20385;-53
2021/04/19 12:22:08;;;;;;;;;;;;;;;19.57;35.45;100135.28;4417021;32;20295;-54
2021/04/19 12:24:35;;;;;;;;;;;;;;;19.63;35.35;100130.03;4417655;32;20379;-52
2021/04/19 12:27:01;;;;;;;;;;;;;;;19.62;35.33;100133.56;4418148;32;19955;-53
2021/04/19 12:29:26;;;;;;;;;;;;;;;19.60;35.39;100135.31;4418225;32;19976;-52